createdAt,value
2022-08-03T00:00:51.901Z,20.56
2022-08-03T00:01:51.888Z,20.51
2022-08-03T00:02:51.922Z,20.47
2022-08-03T00:03:51.839Z,20.42
2022-08-03T00:04:51.817Z,20.35
2022-08-03T00:06:03.892Z,20.31
2022-08-03T00:06:52.809Z,20.30
2022-08-03T00:07:51.808Z,20.25
2022-08-03T00:08:51.811Z,20.23
2022-08-03T00:09:51.783Z,20.16
2022-08-03T00:10:52.720Z,20.18
2022-08-03T00:11:51.720Z,20.15
2022-08-03T00:12:51.739Z,20.13
2022-08-03T00:13:51.787Z,20.09
2022-08-03T00:14:51.792Z,20.09
2022-08-03T00:15:51.659Z,20.03
2022-08-03T00:16:51.644Z,20.00
2022-08-03T00:17:52.012Z,19.97
2022-08-03T00:18:51.633Z,19.93
2022-08-03T00:19:51.685Z,19.91
2022-08-03T00:20:51.621Z,19.86
2022-08-03T00:21:51.569Z,19.84
2022-08-03T00:22:51.700Z,19.80
2022-08-03T00:23:52.953Z,19.79
2022-08-03T00:24:51.553Z,19.76
2022-08-03T00:25:51.592Z,19.72
2022-08-03T00:26:51.522Z,19.70
2022-08-03T00:27:51.501Z,19.69
2022-08-03T00:28:51.568Z,19.66
2022-08-03T00:29:59.622Z,19.65
2022-08-03T00:30:52.498Z,19.63
2022-08-03T00:31:52.738Z,19.58
2022-08-03T00:32:52.470Z,19.60
2022-08-03T00:33:59.322Z,19.58
2022-08-03T00:34:57.519Z,19.57
2022-08-03T00:35:53.426Z,19.55
2022-08-03T00:36:51.578Z,19.57
2022-08-03T00:37:51.410Z,19.57
2022-08-03T00:38:51.390Z,19.57
2022-08-03T00:39:51.393Z,19.55
2022-08-03T00:40:51.380Z,19.53
2022-08-03T00:41:51.306Z,19.50
2022-08-03T00:42:51.319Z,19.48
2022-08-03T00:43:51.298Z,19.47
2022-08-03T00:44:51.291Z,19.43
2022-08-03T00:45:51.256Z,19.39
2022-08-03T00:46:51.279Z,19.39
2022-08-03T00:47:51.231Z,19.38
2022-08-03T00:48:51.414Z,19.36
2022-08-03T00:49:51.240Z,19.33
2022-08-03T00:50:51.255Z,19.32
2022-08-03T00:51:51.201Z,19.31
2022-08-03T00:52:51.222Z,19.29
2022-08-03T00:53:51.193Z,19.25
2022-08-03T00:54:51.226Z,19.23
2022-08-03T00:55:51.154Z,19.20
2022-08-03T00:56:59.979Z,19.15
2022-08-03T00:57:52.117Z,19.13
2022-08-03T00:58:51.105Z,19.10
2022-08-03T00:59:51.105Z,19.08
2022-08-03T01:00:51.159Z,19.05
2022-08-03T01:01:51.211Z,19.01
2022-08-03T01:02:51.064Z,18.99
2022-08-03T01:03:51.023Z,18.99
2022-08-03T01:04:51.039Z,18.99
2022-08-03T01:05:51.007Z,18.95
2022-08-03T01:06:51.089Z,18.94
2022-08-03T01:07:50.964Z,18.92
2022-08-03T01:08:51.061Z,18.87
2022-08-03T01:09:51.078Z,18.90
2022-08-03T01:10:50.929Z,18.87
2022-08-03T01:12:01.219Z,18.87
2022-08-03T01:12:51.904Z,18.91
2022-08-03T01:14:03.589Z,18.94
2022-08-03T01:14:52.448Z,18.95
2022-08-03T01:15:51.037Z,18.91
2022-08-03T01:16:50.961Z,18.90
2022-08-03T01:17:50.862Z,18.83
2022-08-03T01:18:50.871Z,18.82
2022-08-03T01:19:50.830Z,18.74
2022-08-03T01:20:50.792Z,18.72
2022-08-03T01:21:50.805Z,18.68
2022-08-03T01:22:50.793Z,18.65
2022-08-03T01:23:50.758Z,18.65
2022-08-03T01:24:50.813Z,18.59
2022-08-03T01:25:54.471Z,18.57
2022-08-03T01:26:50.743Z,18.55
2022-08-03T01:27:50.766Z,18.52
2022-08-03T01:28:50.723Z,18.49
2022-08-03T01:29:50.700Z,18.44
2022-08-03T01:30:50.755Z,18.42
2022-08-03T01:32:53.470Z,18.40
2022-08-03T01:33:00.341Z,18.39
2022-08-03T01:33:51.635Z,18.34
2022-08-03T01:34:50.609Z,18.29
2022-08-03T01:35:50.607Z,18.27
2022-08-03T01:36:50.707Z,18.21
2022-08-03T01:37:50.644Z,18.17
2022-08-03T01:38:50.583Z,18.15
2022-08-03T01:39:50.561Z,18.13
2022-08-03T01:40:50.569Z,18.10
2022-08-03T01:41:50.521Z,18.07
2022-08-03T01:42:50.501Z,18.06
2022-08-03T01:44:26.791Z,18.06
2022-08-03T01:44:51.478Z,18.03
2022-08-03T01:45:50.480Z,18.03
2022-08-03T01:46:50.549Z,18.02
2022-08-03T01:47:50.433Z,17.99
2022-08-03T01:48:50.480Z,17.94
2022-08-03T01:49:50.403Z,17.95
2022-08-03T01:50:50.398Z,17.91
2022-08-03T01:51:58.488Z,17.89
2022-08-03T01:52:51.411Z,17.87
2022-08-03T01:53:50.399Z,17.85
2022-08-03T01:54:50.380Z,17.82
2022-08-03T01:55:50.394Z,17.82
2022-08-03T01:56:50.345Z,17.82
2022-08-03T01:58:05.201Z,17.81
2022-08-03T01:58:51.363Z,17.79
2022-08-03T01:59:50.294Z,17.81
2022-08-03T02:00:50.339Z,17.78
2022-08-03T02:02:29.184Z,17.76
2022-08-03T02:02:51.364Z,17.74
2022-08-03T02:04:00.871Z,17.70
2022-08-03T02:04:51.266Z,17.70
2022-08-03T02:06:01.224Z,17.67
2022-08-03T02:07:00.139Z,17.66
2022-08-03T02:07:51.168Z,17.66
2022-08-03T02:08:50.195Z,17.64
2022-08-03T02:09:50.203Z,17.63
2022-08-03T02:10:50.125Z,17.59
2022-08-03T02:11:50.109Z,17.59
2022-08-03T02:12:51.240Z,17.57
2022-08-03T02:13:50.118Z,17.55
2022-08-03T02:14:50.138Z,17.54
2022-08-03T02:15:50.070Z,17.54
2022-08-03T02:16:50.078Z,17.51
2022-08-03T02:17:51.188Z,17.50
2022-08-03T02:18:50.150Z,17.47
2022-08-03T02:19:50.031Z,17.47
2022-08-03T02:20:50.030Z,17.46
2022-08-03T02:21:57.233Z,17.43
2022-08-03T02:22:50.987Z,17.43
2022-08-03T02:23:49.999Z,17.41
2022-08-03T02:24:51.173Z,17.38
2022-08-03T02:25:49.970Z,17.40
2022-08-03T02:26:50.010Z,17.38
2022-08-03T02:27:49.905Z,17.38
2022-08-03T02:28:49.888Z,17.38
2022-08-03T02:29:49.874Z,17.36
2022-08-03T02:30:53.809Z,17.35
2022-08-03T02:31:49.874Z,17.35
2022-08-03T02:32:49.913Z,17.32
2022-08-03T02:33:49.867Z,17.30
2022-08-03T02:34:49.894Z,17.30
2022-08-03T02:35:49.810Z,17.28
2022-08-03T02:36:49.852Z,17.28
2022-08-03T02:37:50.935Z,17.26
2022-08-03T02:38:49.784Z,17.22
2022-08-03T02:39:49.829Z,17.23
2022-08-03T02:40:49.797Z,17.22
2022-08-03T02:41:49.757Z,17.20
2022-08-03T02:42:49.703Z,17.20
2022-08-03T02:44:06.696Z,17.20
2022-08-03T02:44:50.689Z,17.18
2022-08-03T02:45:49.687Z,17.15
2022-08-03T02:46:49.744Z,17.14
2022-08-03T02:47:54.175Z,17.14
2022-08-03T02:48:50.692Z,17.14
2022-08-03T02:49:52.157Z,17.11
2022-08-03T02:50:49.663Z,17.13
2022-08-03T02:51:49.589Z,17.08
2022-08-03T02:52:49.672Z,17.08
2022-08-03T02:53:49.719Z,17.08
2022-08-03T02:54:49.560Z,17.07
2022-08-03T02:55:51.563Z,17.06
2022-08-03T02:56:49.631Z,17.07
2022-08-03T02:57:49.644Z,17.06
2022-08-03T02:58:49.551Z,17.04
2022-08-03T02:59:49.525Z,17.03
2022-08-03T03:00:49.656Z,17.03
2022-08-03T03:01:49.512Z,17.00
2022-08-03T03:02:49.464Z,17.00
2022-08-03T03:03:49.512Z,17.03
2022-08-03T03:05:50.592Z,17.00
2022-08-03T03:05:52.728Z,17.00
2022-08-03T03:06:50.425Z,16.98
2022-08-03T03:07:51.749Z,16.98
2022-08-03T03:08:49.957Z,16.96
2022-08-03T03:09:49.374Z,16.98
2022-08-03T03:10:53.184Z,16.98
2022-08-03T03:11:50.337Z,16.96
2022-08-03T03:12:49.375Z,16.95
2022-08-03T03:13:49.308Z,16.96
2022-08-03T03:14:49.422Z,16.96
2022-08-03T03:15:49.273Z,16.96
2022-08-03T03:16:51.785Z,16.98
2022-08-03T03:17:50.300Z,16.95
2022-08-03T03:18:49.358Z,16.93
2022-08-03T03:19:49.238Z,16.93
2022-08-03T03:20:49.205Z,16.95
2022-08-03T03:21:50.280Z,16.92
2022-08-03T03:22:49.378Z,16.95
2022-08-03T03:23:49.192Z,16.93
2022-08-03T03:24:49.190Z,16.95
2022-08-03T03:25:49.156Z,16.95
2022-08-03T03:26:49.157Z,16.95
2022-08-03T03:27:50.833Z,16.92
2022-08-03T03:28:49.107Z,16.92
2022-08-03T03:29:49.091Z,16.93
2022-08-03T03:30:53.070Z,16.93
2022-08-03T03:31:49.193Z,16.93
2022-08-03T03:32:49.150Z,16.92
2022-08-03T03:33:49.165Z,16.92
2022-08-03T03:34:49.058Z,16.92
2022-08-03T03:35:49.029Z,16.90
2022-08-03T03:36:49.010Z,16.89
2022-08-03T03:37:48.992Z,16.89
2022-08-03T03:38:48.995Z,16.90
2022-08-03T03:39:49.087Z,16.90
2022-08-03T03:40:48.953Z,16.89
2022-08-03T03:41:48.975Z,16.90
2022-08-03T03:42:48.922Z,16.89
2022-08-03T03:43:48.967Z,16.90
2022-08-03T03:44:49.010Z,16.90
2022-08-03T03:45:48.925Z,16.90
2022-08-03T03:46:48.906Z,16.92
2022-08-03T03:47:48.867Z,16.92
2022-08-03T03:48:48.861Z,16.88
2022-08-03T03:49:48.919Z,16.89
2022-08-03T03:50:48.905Z,16.88
2022-08-03T03:51:48.827Z,16.88
2022-08-03T03:52:48.791Z,16.86
2022-08-03T03:53:48.775Z,16.85
2022-08-03T03:54:48.776Z,16.85
2022-08-03T03:55:59.714Z,16.85
2022-08-03T03:56:49.762Z,16.86
2022-08-03T03:57:48.720Z,16.86
2022-08-03T03:58:48.731Z,16.86
2022-08-03T03:59:49.715Z,16.86
2022-08-03T04:00:48.866Z,16.89
2022-08-03T04:01:48.691Z,16.89
2022-08-03T04:02:49.726Z,16.92
2022-08-03T04:03:48.640Z,16.92
2022-08-03T04:04:48.663Z,16.92
2022-08-03T04:05:48.620Z,16.93
2022-08-03T04:06:48.642Z,16.93
2022-08-03T04:07:48.632Z,16.95
2022-08-03T04:08:49.457Z,16.96
2022-08-03T04:09:48.552Z,16.95
2022-08-03T04:10:48.612Z,16.95
2022-08-03T04:11:49.584Z,16.95
2022-08-03T04:12:49.854Z,16.95
2022-08-03T04:13:48.543Z,16.96
2022-08-03T04:14:48.493Z,16.96
2022-08-03T04:15:48.506Z,16.96
2022-08-03T04:16:48.485Z,16.98
2022-08-03T04:17:48.491Z,16.98
2022-08-03T04:18:48.495Z,16.98
2022-08-03T04:19:48.429Z,16.98
2022-08-03T04:20:48.481Z,17.00
2022-08-03T04:21:48.398Z,17.00
2022-08-03T04:22:48.383Z,17.03
2022-08-03T04:23:48.409Z,17.04
2022-08-03T04:24:48.353Z,17.04
2022-08-03T04:25:48.510Z,17.07
2022-08-03T04:26:52.481Z,17.08
2022-08-03T04:28:28.321Z,17.11
2022-08-03T04:28:49.307Z,17.11
2022-08-03T04:29:48.796Z,17.13
2022-08-03T04:30:48.366Z,17.15
2022-08-03T04:31:48.336Z,17.15
2022-08-03T04:32:48.257Z,17.18
2022-08-03T04:33:48.290Z,17.22
2022-08-03T04:34:48.250Z,17.22
2022-08-03T04:35:58.658Z,17.23
2022-08-03T04:36:49.227Z,17.28
2022-08-03T04:37:48.211Z,17.28
2022-08-03T04:38:48.311Z,17.30
2022-08-03T04:39:48.181Z,17.33
2022-08-03T04:40:48.175Z,17.35
2022-08-03T04:42:07.594Z,17.35
2022-08-03T04:42:49.143Z,17.38
2022-08-03T04:43:48.153Z,17.38
2022-08-03T04:44:48.124Z,17.43
2022-08-03T04:45:48.166Z,17.43
2022-08-03T04:46:50.514Z,17.44
2022-08-03T04:47:48.065Z,17.46
2022-08-03T04:48:48.045Z,17.47
2022-08-03T04:49:48.024Z,17.48
2022-08-03T04:50:48.414Z,17.50
2022-08-03T04:51:48.015Z,17.51
2022-08-03T04:52:48.091Z,17.54
2022-08-03T04:53:47.988Z,17.57
2022-08-03T04:54:50.516Z,17.62
2022-08-03T04:55:47.994Z,17.63
2022-08-03T04:56:48.135Z,17.69
2022-08-03T04:57:47.995Z,17.71
2022-08-03T04:58:48.052Z,17.76
2022-08-03T04:59:47.934Z,17.81
2022-08-03T05:00:47.906Z,17.87
2022-08-03T05:01:47.997Z,17.88
2022-08-03T05:02:48.041Z,17.92
2022-08-03T05:03:47.904Z,18.00
2022-08-03T05:04:47.885Z,18.06
2022-08-03T05:05:50.291Z,18.12
2022-08-03T05:06:48.143Z,18.21
2022-08-03T05:07:48.842Z,18.27
2022-08-03T05:08:48.882Z,18.33
2022-08-03T05:09:52.351Z,18.40
2022-08-03T05:10:48.810Z,18.47
2022-08-03T05:11:47.933Z,18.50
2022-08-03T05:12:47.851Z,18.61
2022-08-03T05:13:47.953Z,18.72
2022-08-03T05:14:47.724Z,18.80
2022-08-03T05:15:47.698Z,18.91
2022-08-03T05:16:47.750Z,18.99
2022-08-03T05:17:47.667Z,19.11
2022-08-03T05:18:47.784Z,19.17
2022-08-03T05:19:47.696Z,19.28
2022-08-03T05:20:48.347Z,19.32
2022-08-03T05:21:52.222Z,19.40
2022-08-03T05:22:48.589Z,19.48
2022-08-03T05:23:47.668Z,19.55
2022-08-03T05:24:47.583Z,19.63
2022-08-03T05:25:50.033Z,19.69
2022-08-03T05:26:47.546Z,19.75
2022-08-03T05:27:47.526Z,19.79
2022-08-03T05:28:50.664Z,19.84
2022-08-03T05:29:47.605Z,19.91
2022-08-03T05:30:47.530Z,19.95
2022-08-03T05:31:47.528Z,20.02
2022-08-03T05:32:47.514Z,20.08
2022-08-03T05:33:47.446Z,20.15
2022-08-03T05:34:47.480Z,20.21
2022-08-03T05:35:57.767Z,20.27
2022-08-03T05:36:48.467Z,20.33
2022-08-03T05:37:54.713Z,20.38
2022-08-03T05:38:48.403Z,20.42
2022-08-03T05:39:47.384Z,20.49
2022-08-03T05:40:56.983Z,20.54
2022-08-03T05:41:48.447Z,20.61
2022-08-03T05:42:47.372Z,20.66
2022-08-03T05:43:47.354Z,20.74
2022-08-03T05:44:47.327Z,20.83
2022-08-03T05:45:47.291Z,20.90
2022-08-03T05:46:48.299Z,20.99
2022-08-03T05:47:47.303Z,21.08
2022-08-03T05:48:47.261Z,21.19
2022-08-03T05:49:47.322Z,21.27
2022-08-03T05:50:47.245Z,21.38
2022-08-03T05:51:47.208Z,21.50
2022-08-03T05:52:48.195Z,21.57
2022-08-03T05:53:47.218Z,21.64
2022-08-03T05:54:56.097Z,21.72
2022-08-03T05:55:51.355Z,21.78
2022-08-03T05:56:48.143Z,21.88
2022-08-03T05:57:47.156Z,21.98
2022-08-03T05:58:47.633Z,22.09
2022-08-03T05:59:53.960Z,22.16
2022-08-03T06:00:48.085Z,22.22
2022-08-03T06:01:47.252Z,22.29
2022-08-03T06:02:47.076Z,22.37
2022-08-03T06:03:47.045Z,22.46
2022-08-03T06:04:47.129Z,22.52
2022-08-03T06:05:54.972Z,22.59
2022-08-03T06:06:48.071Z,22.69
2022-08-03T06:07:47.015Z,22.75
2022-08-03T06:08:47.064Z,22.86
2022-08-03T06:10:37.319Z,22.92
2022-08-03T06:10:48.049Z,23.02
2022-08-03T06:11:46.961Z,23.09
2022-08-03T06:12:46.932Z,23.14
2022-08-03T06:13:46.943Z,23.20
2022-08-03T06:14:46.957Z,23.29
2022-08-03T06:15:47.000Z,23.38
2022-08-03T06:16:46.953Z,23.43
2022-08-03T06:17:46.934Z,23.50
2022-08-03T06:18:46.851Z,23.57
2022-08-03T06:19:46.867Z,23.62
2022-08-03T06:20:47.103Z,23.67
2022-08-03T06:21:46.842Z,23.70
2022-08-03T06:22:50.672Z,23.77
2022-08-03T06:23:53.906Z,23.86
2022-08-03T06:24:53.570Z,23.92
2022-08-03T06:25:47.751Z,23.97
2022-08-03T06:26:46.744Z,24.02
2022-08-03T06:27:46.734Z,24.08
2022-08-03T06:28:52.711Z,24.16
2022-08-03T06:29:47.704Z,24.20
2022-08-03T06:30:46.697Z,24.24
2022-08-03T06:31:46.995Z,24.29
2022-08-03T06:32:52.124Z,24.35
2022-08-03T06:34:31.186Z,24.35
2022-08-03T06:34:47.698Z,24.42
2022-08-03T06:35:46.739Z,24.42
2022-08-03T06:36:46.921Z,24.47
2022-08-03T06:37:46.658Z,24.57
2022-08-03T06:38:46.612Z,24.63
2022-08-03T06:39:46.655Z,24.69
2022-08-03T06:40:46.568Z,24.73
2022-08-03T06:41:46.574Z,24.87
2022-08-03T06:42:47.284Z,24.92
2022-08-03T06:44:03.999Z,24.98
2022-08-03T06:44:47.573Z,25.12
2022-08-03T06:45:46.651Z,25.20
2022-08-03T06:46:46.686Z,25.30
2022-08-03T06:47:46.583Z,25.37
2022-08-03T06:48:46.506Z,25.46
2022-08-03T06:50:12.493Z,25.47
2022-08-03T06:50:47.435Z,25.54
2022-08-03T06:52:05.970Z,25.62
2022-08-03T06:52:47.910Z,25.69
2022-08-03T06:53:46.607Z,25.80
2022-08-03T06:54:46.454Z,25.87
2022-08-03T06:55:48.127Z,26.01
2022-08-03T06:56:47.356Z,26.15
2022-08-03T06:57:46.387Z,26.25
2022-08-03T06:58:46.344Z,26.36
2022-08-03T07:00:11.051Z,26.40
2022-08-03T07:00:47.353Z,26.44
2022-08-03T07:01:46.451Z,26.54
2022-08-03T07:02:46.350Z,26.57
2022-08-03T07:03:52.319Z,26.58
2022-08-03T07:04:47.313Z,26.64
2022-08-03T07:05:46.876Z,26.69
2022-08-03T07:06:46.225Z,26.69
2022-08-03T07:07:46.228Z,26.72
2022-08-03T07:08:49.469Z,26.68
2022-08-03T07:09:57.578Z,26.61
2022-08-03T07:10:47.276Z,26.57
2022-08-03T07:11:46.172Z,26.54
2022-08-03T07:12:56.097Z,26.52
2022-08-03T07:13:47.132Z,26.54
2022-08-03T07:14:46.116Z,26.52
2022-08-03T07:15:55.430Z,26.64
2022-08-03T07:16:47.124Z,26.83
2022-08-03T07:17:46.104Z,26.95
2022-08-03T07:18:46.084Z,27.01
2022-08-03T07:19:46.068Z,27.11
2022-08-03T07:20:46.117Z,27.20
2022-08-03T07:21:46.045Z,27.36
2022-08-03T07:22:47.493Z,27.51
2022-08-03T07:23:47.025Z,27.50
2022-08-03T07:24:46.010Z,27.53
2022-08-03T07:25:46.064Z,27.58
2022-08-03T07:26:46.001Z,27.70
2022-08-03T07:27:50.022Z,27.86
2022-08-03T07:28:46.937Z,27.86
2022-08-03T07:29:45.970Z,27.82
2022-08-03T07:30:45.913Z,27.80
2022-08-03T07:31:45.908Z,27.88
2022-08-03T07:32:50.387Z,27.91
2022-08-03T07:33:46.873Z,27.96
2022-08-03T07:34:45.861Z,28.10
2022-08-03T07:35:45.992Z,28.25
2022-08-03T07:36:46.479Z,28.35
2022-08-03T07:37:54.634Z,28.38
2022-08-03T07:38:46.813Z,28.36
2022-08-03T07:39:45.800Z,28.38
2022-08-03T07:40:46.453Z,28.23
2022-08-03T07:41:45.847Z,28.06
2022-08-03T07:42:45.792Z,27.99
2022-08-03T07:43:45.887Z,27.99
2022-08-03T07:44:45.745Z,28.11
2022-08-03T07:45:45.760Z,28.28
2022-08-03T07:46:45.726Z,28.40
2022-08-03T07:47:46.237Z,28.59
2022-08-03T07:48:48.189Z,28.73
2022-08-03T07:49:45.656Z,28.90
2022-08-03T07:50:45.738Z,29.07
2022-08-03T07:51:45.639Z,29.18
2022-08-03T07:52:45.656Z,29.22
2022-08-03T07:53:47.820Z,29.29
2022-08-03T07:54:47.240Z,29.35
2022-08-03T07:55:45.875Z,29.20
2022-08-03T07:56:45.567Z,28.93
2022-08-03T07:57:45.547Z,28.90
2022-08-03T07:58:47.033Z,28.75
2022-08-03T07:59:56.735Z,28.78
2022-08-03T08:00:46.727Z,28.90
2022-08-03T08:01:45.738Z,29.01
2022-08-03T08:02:45.553Z,29.11
2022-08-03T08:03:53.433Z,29.25
2022-08-03T08:04:47.173Z,29.34
2022-08-03T08:05:45.444Z,29.34
2022-08-03T08:06:45.465Z,29.26
2022-08-03T08:07:51.444Z,29.22
2022-08-03T08:08:46.493Z,29.15
2022-08-03T08:09:45.393Z,29.00
2022-08-03T08:10:58.288Z,28.78
2022-08-03T08:11:46.364Z,28.78
2022-08-03T08:12:45.358Z,28.78
2022-08-03T08:13:46.326Z,28.75
2022-08-03T08:14:45.624Z,28.84
2022-08-03T08:15:45.348Z,28.90
2022-08-03T08:16:45.349Z,28.90
2022-08-03T08:17:45.309Z,28.91
2022-08-03T08:18:45.729Z,29.03
2022-08-03T08:19:51.367Z,29.23
2022-08-03T08:20:46.785Z,29.35
2022-08-03T08:21:53.077Z,29.37
2022-08-03T08:22:46.257Z,29.41
2022-08-03T08:23:50.551Z,29.37
2022-08-03T08:24:47.309Z,29.22
2022-08-03T08:25:46.193Z,29.10
2022-08-03T08:26:45.234Z,29.26
2022-08-03T08:28:30.619Z,29.50
2022-08-03T08:28:46.190Z,29.44
2022-08-03T08:29:47.597Z,29.45
2022-08-03T08:30:46.163Z,29.40
2022-08-03T08:31:45.110Z,29.29
2022-08-03T08:32:45.233Z,29.22
2022-08-03T08:34:46.095Z,29.13
2022-08-03T08:35:45.093Z,29.16
2022-08-03T08:36:45.087Z,29.19
2022-08-03T08:37:50.919Z,29.22
2022-08-03T08:38:46.046Z,29.29
2022-08-03T08:39:45.003Z,29.37
2022-08-03T08:40:45.020Z,29.41
2022-08-03T08:41:45.840Z,29.52
2022-08-03T08:42:58.051Z,29.68
2022-08-03T08:43:45.958Z,29.81
2022-08-03T08:44:44.948Z,29.81
2022-08-03T08:45:44.950Z,29.79
2022-08-03T08:46:45.071Z,29.79
2022-08-03T08:47:51.243Z,29.79
2022-08-03T08:48:45.887Z,29.77
2022-08-03T08:50:03.875Z,29.81
2022-08-03T08:50:45.872Z,29.84
2022-08-03T08:51:59.318Z,29.86
2022-08-03T08:52:45.992Z,29.90
2022-08-03T08:53:44.892Z,29.93
2022-08-03T08:54:44.817Z,29.84
2022-08-03T08:55:58.921Z,29.74
2022-08-03T08:56:45.854Z,29.70
2022-08-03T08:57:44.866Z,29.74
2022-08-03T08:58:44.866Z,29.84
2022-08-03T08:59:48.412Z,29.86
2022-08-03T09:00:44.771Z,29.82
2022-08-03T09:01:44.786Z,29.81
2022-08-03T09:02:44.734Z,29.82
2022-08-03T09:03:44.695Z,29.92
2022-08-03T09:04:44.920Z,29.93
2022-08-03T09:05:55.825Z,29.96
2022-08-03T09:06:58.841Z,29.99
2022-08-03T09:07:45.691Z,29.99
2022-08-03T09:08:44.669Z,29.87
2022-08-03T09:10:10.162Z,29.87
2022-08-03T09:10:45.672Z,29.96
2022-08-03T09:12:01.051Z,30.03
2022-08-03T09:12:45.620Z,30.16
2022-08-03T09:13:44.567Z,30.18
2022-08-03T09:15:00.755Z,30.19
2022-08-03T09:16:00.770Z,30.21
2022-08-03T09:16:45.552Z,30.26
2022-08-03T09:17:50.369Z,30.29
2022-08-03T09:18:45.499Z,30.19
2022-08-03T09:20:03.535Z,30.02
2022-08-03T09:20:45.471Z,29.97
2022-08-03T09:21:44.535Z,30.00
2022-08-03T09:22:44.493Z,30.08
2022-08-03T09:24:00.578Z,30.09
2022-08-03T09:24:45.586Z,30.23
2022-08-03T09:25:44.413Z,30.09
2022-08-03T09:26:44.520Z,30.05
2022-08-03T09:27:44.398Z,29.92
2022-08-03T09:28:58.005Z,29.97
2022-08-03T09:29:45.697Z,30.11
2022-08-03T09:30:44.396Z,30.16
2022-08-03T09:31:44.992Z,30.11
2022-08-03T09:32:44.369Z,30.11
2022-08-03T09:33:44.338Z,30.02
2022-08-03T09:34:44.299Z,29.75
2022-08-03T09:35:53.622Z,29.75
2022-08-03T09:36:45.302Z,29.82
2022-08-03T09:38:11.868Z,29.79
2022-08-03T09:38:45.244Z,29.97
2022-08-03T09:39:44.279Z,30.11
2022-08-03T09:40:44.243Z,30.16
2022-08-03T09:41:44.208Z,30.18
2022-08-03T09:42:44.191Z,30.05
2022-08-03T09:43:44.207Z,30.11
2022-08-03T09:44:44.162Z,30.08
2022-08-03T09:45:44.142Z,30.14
2022-08-03T09:46:44.684Z,30.18
2022-08-03T09:47:45.318Z,30.36
2022-08-03T09:48:44.152Z,30.43
2022-08-03T09:49:44.212Z,30.37
2022-08-03T09:50:56.976Z,30.38
2022-08-03T09:52:31.467Z,30.46
2022-08-03T09:52:50.166Z,30.52
2022-08-03T09:53:58.885Z,30.45
2022-08-03T09:54:45.019Z,30.45
2022-08-03T09:56:34.961Z,30.46
2022-08-03T09:56:45.080Z,30.54
2022-08-03T09:57:43.988Z,30.69
2022-08-03T09:58:43.978Z,30.86
2022-08-03T09:59:43.981Z,31.01
2022-08-03T10:00:44.007Z,31.06
2022-08-03T10:01:44.011Z,30.83
2022-08-03T10:02:43.967Z,30.64
2022-08-03T10:04:03.194Z,30.67
2022-08-03T10:04:44.940Z,30.57
2022-08-03T10:05:43.943Z,30.37
2022-08-03T10:06:45.861Z,30.37
2022-08-03T10:07:45.906Z,30.53
2022-08-03T10:08:43.875Z,30.54
2022-08-03T10:09:43.868Z,30.50
2022-08-03T10:10:44.031Z,30.50
2022-08-03T10:11:43.835Z,30.40
2022-08-03T10:12:43.833Z,30.37
2022-08-03T10:13:43.794Z,30.52
2022-08-03T10:14:43.808Z,30.71
2022-08-03T10:16:21.712Z,30.81
2022-08-03T10:16:44.754Z,30.98
2022-08-03T10:17:43.727Z,31.18
2022-08-03T10:18:43.795Z,31.18
2022-08-03T10:19:43.700Z,31.18
2022-08-03T10:20:43.779Z,31.20
2022-08-03T10:21:43.722Z,31.15
2022-08-03T10:22:43.738Z,30.99
2022-08-03T10:23:43.701Z,30.68
2022-08-03T10:24:43.692Z,30.69
2022-08-03T10:25:43.619Z,30.59
2022-08-03T10:26:49.714Z,30.61
2022-08-03T10:27:44.630Z,30.72
2022-08-03T10:28:45.542Z,30.99
2022-08-03T10:29:43.589Z,31.12
2022-08-03T10:30:43.560Z,31.27
2022-08-03T10:31:54.553Z,31.43
2022-08-03T10:32:44.592Z,31.33
2022-08-03T10:33:50.158Z,31.28
2022-08-03T10:34:44.982Z,31.35
2022-08-03T10:35:43.541Z,31.30
2022-08-03T10:36:43.481Z,31.28
2022-08-03T10:37:43.504Z,31.23
2022-08-03T10:38:44.474Z,31.20
2022-08-03T10:39:43.449Z,31.30
2022-08-03T10:40:53.599Z,31.42
2022-08-03T10:41:44.487Z,31.46
2022-08-03T10:42:43.441Z,31.46
2022-08-03T10:43:43.474Z,31.58
2022-08-03T10:44:43.471Z,31.57
2022-08-03T10:45:43.382Z,31.57
2022-08-03T10:46:45.166Z,31.58
2022-08-03T10:47:43.375Z,31.68
2022-08-03T10:48:43.663Z,31.65
2022-08-03T10:49:43.433Z,31.60
2022-08-03T10:50:43.333Z,31.30
2022-08-03T10:51:43.329Z,31.23
2022-08-03T10:52:45.377Z,31.43
2022-08-03T10:53:52.847Z,31.50
2022-08-03T10:54:44.254Z,31.50
2022-08-03T10:55:43.282Z,31.55
2022-08-03T10:56:49.667Z,31.57
2022-08-03T10:57:44.299Z,31.48
2022-08-03T10:58:53.291Z,31.38
2022-08-03T10:59:44.203Z,31.45
2022-08-03T11:00:43.193Z,31.54
2022-08-03T11:01:58.483Z,31.61
2022-08-03T11:02:44.177Z,31.73
2022-08-03T11:03:43.166Z,31.73
2022-08-03T11:04:43.235Z,31.76
2022-08-03T11:05:43.149Z,31.80
2022-08-03T11:06:43.156Z,31.85
2022-08-03T11:07:44.560Z,31.96
2022-08-03T11:08:44.882Z,31.98
2022-08-03T11:09:43.199Z,32.07
2022-08-03T11:10:43.041Z,32.17
2022-08-03T11:11:43.156Z,32.17
2022-08-03T11:12:43.080Z,32.02
2022-08-03T11:13:43.053Z,31.93
2022-08-03T11:14:42.987Z,31.85
2022-08-03T11:15:43.133Z,31.96
2022-08-03T11:16:42.973Z,31.88
2022-08-03T11:17:46.378Z,31.91
2022-08-03T11:18:44.219Z,31.93
2022-08-03T11:19:57.018Z,32.02
2022-08-03T11:20:43.913Z,32.17
2022-08-03T11:21:42.903Z,32.13
2022-08-03T11:22:42.955Z,31.96
2022-08-03T11:24:04.387Z,31.95
2022-08-03T11:24:43.903Z,32.14
2022-08-03T11:25:54.831Z,32.39
2022-08-03T11:26:44.085Z,32.48
2022-08-03T11:27:42.865Z,32.58
2022-08-03T11:28:42.886Z,32.61
2022-08-03T11:29:43.187Z,32.48
2022-08-03T11:30:42.879Z,32.51
2022-08-03T11:31:51.485Z,32.22
2022-08-03T11:32:46.638Z,31.95
2022-08-03T11:33:44.290Z,31.96
2022-08-03T11:34:42.926Z,31.99
2022-08-03T11:35:42.783Z,32.03
2022-08-03T11:36:42.718Z,32.06
2022-08-03T11:37:43.651Z,31.84
2022-08-03T11:38:43.694Z,31.80
2022-08-03T11:39:42.808Z,31.73
2022-08-03T11:40:42.772Z,31.84
2022-08-03T11:41:45.440Z,31.82
2022-08-03T11:42:42.713Z,31.72
2022-08-03T11:43:42.623Z,31.57
2022-08-03T11:44:42.602Z,31.60
2022-08-03T11:45:43.628Z,31.60
2022-08-03T11:46:42.574Z,31.62
2022-08-03T11:47:50.690Z,31.64
2022-08-03T11:48:43.908Z,31.77
2022-08-03T11:49:43.651Z,31.98
2022-08-03T11:50:42.602Z,32.06
2022-08-03T11:51:42.584Z,32.15
2022-08-03T11:52:42.534Z,32.14
2022-08-03T11:53:42.668Z,32.13
2022-08-03T11:54:42.478Z,32.11
2022-08-03T11:55:42.515Z,32.03
2022-08-03T11:56:42.519Z,32.18
2022-08-03T11:59:02.706Z,32.27
2022-08-03T11:59:12.868Z,32.29
2022-08-03T11:59:43.492Z,32.39
2022-08-03T12:00:42.412Z,32.36
2022-08-03T12:01:42.465Z,32.47
2022-08-03T12:02:42.419Z,32.47
2022-08-03T12:03:42.505Z,32.55
2022-08-03T12:04:42.354Z,32.66
2022-08-03T12:05:42.384Z,32.79
2022-08-03T12:06:47.253Z,32.77
2022-08-03T12:08:04.372Z,32.62
2022-08-03T12:08:43.350Z,32.67
2022-08-03T12:09:42.302Z,32.86
2022-08-03T12:10:42.394Z,32.92
2022-08-03T12:11:56.144Z,32.98
2022-08-03T12:12:46.421Z,33.26
2022-08-03T12:14:27.080Z,33.45
2022-08-03T12:14:49.546Z,33.33
2022-08-03T12:15:43.264Z,33.17
2022-08-03T12:16:42.257Z,32.91
2022-08-03T12:17:42.214Z,32.84
2022-08-03T12:18:42.179Z,32.92
2022-08-03T12:19:42.198Z,32.98
2022-08-03T12:20:42.173Z,33.03
2022-08-03T12:21:42.198Z,33.10
2022-08-03T12:22:43.180Z,33.04
2022-08-03T12:23:42.215Z,32.85
2022-08-03T12:24:42.111Z,32.73
2022-08-03T12:25:42.084Z,32.67
2022-08-03T12:26:42.075Z,32.79
2022-08-03T12:27:42.080Z,32.85
2022-08-03T12:28:44.212Z,32.81
2022-08-03T12:29:42.098Z,32.84
2022-08-03T12:30:43.275Z,32.74
2022-08-03T12:31:42.044Z,32.52
2022-08-03T12:32:42.014Z,32.49
2022-08-03T12:33:41.987Z,32.59
2022-08-03T12:34:46.945Z,32.80
2022-08-03T12:35:52.596Z,32.91
2022-08-03T12:36:42.981Z,32.98
2022-08-03T12:37:42.000Z,32.91
2022-08-03T12:38:41.934Z,32.84
2022-08-03T12:40:03.007Z,32.88
2022-08-03T12:40:42.915Z,32.98
2022-08-03T12:41:41.891Z,33.04
2022-08-03T12:42:41.952Z,33.15
2022-08-03T12:43:41.864Z,33.34
2022-08-03T12:44:41.842Z,33.55
2022-08-03T12:45:41.871Z,33.65
2022-08-03T12:46:47.512Z,33.74
2022-08-03T12:47:42.832Z,33.83
2022-08-03T12:48:41.812Z,33.94
2022-08-03T12:49:41.884Z,34.09
2022-08-03T12:50:42.122Z,33.98
2022-08-03T12:51:41.797Z,33.30
2022-08-03T12:52:41.811Z,33.03
2022-08-03T12:53:41.748Z,32.92